< < Back
Terminal Aerodrome Forecast


Current Version              Previous Versions:   1  2  3  4  5  6  7  8  9  

Terminal Aerodrome Forecast

916
FTUS44 KMOB 011800 AAA
TAFMOB
TAF AMD
KMOB 011808Z 0118/0218 VRB03KT P6SM BKN040
     FM020600 12003KT 5SM BR BKN015=



Latest METAR

197
SAUS80 KWBC 020800
MTRMOB
METAR KMOB 020756Z AUTO 13004KT 10SM OVC060 23/23 A2998 RMK AO2 SLP148
T02280228


USA.gov is the U.S. government's official web portal to all federal, state and local government web resources and services.